createdAt,value
2023-04-16T00:00:10.686Z,99870.81
2023-04-16T00:01:11.871Z,99865.00
2023-04-16T00:01:51.838Z,99857.88
2023-04-16T00:02:54.012Z,99853.34
2023-04-16T00:03:40.948Z,99866.53
2023-04-16T00:04:21.804Z,99871.81
2023-04-16T00:05:15.803Z,99865.53
2023-04-16T00:06:09.874Z,99858.56
2023-04-16T00:07:03.697Z,99869.19
2023-04-16T00:07:58.677Z,99853.72
2023-04-16T00:08:52.662Z,99862.25
2023-04-16T00:09:39.750Z,99872.34
2023-04-16T00:10:14.766Z,99860.59
2023-04-16T00:11:01.701Z,99859.16
2023-04-16T00:11:35.789Z,99850.97
2023-04-16T00:12:22.686Z,99878.38
2023-04-16T00:12:56.771Z,99867.28
2023-04-16T00:13:43.679Z,99855.66
2023-04-16T00:14:17.812Z,99868.28
2023-04-16T00:15:06.712Z,99849.22
2023-04-16T00:15:40.797Z,99868.16
2023-04-16T00:16:27.699Z,99868.03
2023-04-16T00:17:01.898Z,99869.03
2023-04-16T00:17:48.685Z,99872.84
2023-04-16T00:18:22.773Z,99871.00
2023-04-16T00:19:09.785Z,99866.59
2023-04-16T00:19:44.776Z,99860.19
2023-04-16T00:20:31.706Z,99872.38
2023-04-16T00:21:05.905Z,99875.09
2023-04-16T00:21:53.655Z,99872.38
2023-04-16T00:22:27.765Z,99883.53
2023-04-16T00:23:14.672Z,99883.22
2023-04-16T00:23:48.804Z,99877.00
2023-04-16T00:24:37.649Z,99881.50
2023-04-16T00:25:11.740Z,99866.78
2023-04-16T00:25:52.672Z,99887.94
2023-04-16T00:26:32.769Z,99876.00
2023-04-16T00:27:13.674Z,99889.78
2023-04-16T00:27:53.852Z,99888.38
2023-04-16T00:28:34.680Z,99888.63
2023-04-16T00:29:14.755Z,99886.66
2023-04-16T00:29:54.636Z,99884.66
2023-04-16T00:30:35.180Z,99881.00
2023-04-16T00:31:15.712Z,99885.81
2023-04-16T00:31:56.782Z,99880.56
2023-04-16T00:32:37.746Z,99883.44
2023-04-16T00:33:17.782Z,99870.59
2023-04-16T00:33:57.663Z,99890.88
2023-04-16T00:34:37.736Z,99887.34
2023-04-16T00:35:17.646Z,99889.78
2023-04-16T00:35:57.788Z,99878.97
2023-04-16T00:36:38.706Z,99891.91
2023-04-16T00:37:18.713Z,99890.75
2023-04-16T00:37:58.623Z,99877.25
2023-04-16T00:38:38.718Z,99894.59
2023-04-16T00:39:18.633Z,99875.84
2023-04-16T00:39:58.722Z,99885.25
2023-04-16T00:40:38.624Z,99877.88
2023-04-16T00:41:18.715Z,99897.81
2023-04-16T00:41:58.648Z,99894.25
2023-04-16T00:42:38.703Z,99899.69
2023-04-16T00:43:23.645Z,99884.00
2023-04-16T00:44:03.955Z,99887.88
2023-04-16T00:44:43.638Z,99885.31
2023-04-16T00:45:23.779Z,99889.72
2023-04-16T00:46:04.711Z,99901.41
2023-04-16T00:46:44.769Z,99893.44
2023-04-16T00:47:26.646Z,99905.66
2023-04-16T00:48:07.707Z,99888.03
2023-04-16T00:48:48.622Z,99903.69
2023-04-16T00:49:28.700Z,99879.41
2023-04-16T00:50:10.643Z,99905.84
2023-04-16T00:50:50.687Z,99900.75
2023-04-16T00:51:31.627Z,99909.56
2023-04-16T00:52:11.700Z,99907.28
2023-04-16T00:52:56.664Z,99916.81
2023-04-16T00:53:37.797Z,99898.16
2023-04-16T00:54:17.607Z,99910.09
2023-04-16T00:54:57.690Z,99906.38
2023-04-16T00:55:38.613Z,99905.84
2023-04-16T00:56:20.583Z,99917.09
2023-04-16T00:57:00.596Z,99901.56
2023-04-16T00:57:40.758Z,99912.53
2023-04-16T00:58:20.641Z,99882.53
2023-04-16T00:59:01.720Z,99906.38
2023-04-16T00:59:42.634Z,99902.28
2023-04-16T01:00:23.696Z,99908.41
2023-04-16T01:01:04.666Z,99898.16
2023-04-16T01:01:44.722Z,99882.63
2023-04-16T01:02:24.703Z,99901.56
2023-04-16T01:03:05.946Z,99890.56
2023-04-16T01:03:52.835Z,99903.53
2023-04-16T01:04:34.027Z,99906.97
2023-04-16T01:05:14.609Z,99898.44
2023-04-16T01:05:54.754Z,99894.13
2023-04-16T01:06:34.605Z,99887.16
2023-04-16T01:07:14.672Z,99900.41
2023-04-16T01:07:54.638Z,99902.94
2023-04-16T01:08:34.720Z,99893.53
2023-04-16T01:09:16.621Z,99901.25
2023-04-16T01:09:56.689Z,99897.69
2023-04-16T01:10:37.582Z,99887.44
2023-04-16T01:11:18.793Z,99901.88
2023-04-16T01:11:58.633Z,99894.78
2023-04-16T01:12:38.728Z,99904.59
2023-04-16T01:13:19.598Z,99912.72
2023-04-16T01:13:59.710Z,99899.19
2023-04-16T01:14:42.702Z,99901.88
2023-04-16T01:15:22.734Z,99907.47
2023-04-16T01:16:02.620Z,99889.69
2023-04-16T01:16:42.684Z,99887.09
2023-04-16T01:17:22.616Z,99902.03
2023-04-16T01:18:02.838Z,99884.97
2023-04-16T01:18:44.600Z,99888.94
2023-04-16T01:19:24.715Z,99909.69
2023-04-16T01:20:07.609Z,99885.81
2023-04-16T01:20:47.702Z,99901.88
2023-04-16T01:21:28.623Z,99884.56
2023-04-16T01:22:09.677Z,99917.41
2023-04-16T01:22:49.573Z,99892.25
2023-04-16T01:23:29.684Z,99897.66
2023-04-16T01:24:11.579Z,99905.34
2023-04-16T01:24:51.684Z,99895.53
2023-04-16T01:25:32.617Z,99899.94
2023-04-16T01:26:12.682Z,99900.78
2023-04-16T01:26:52.588Z,99901.63
2023-04-16T01:27:32.853Z,99893.53
2023-04-16T01:28:13.583Z,99913.72
2023-04-16T01:28:53.660Z,99902.78
2023-04-16T01:29:34.572Z,99900.78
2023-04-16T01:30:15.924Z,99911.59
2023-04-16T01:30:55.700Z,99898.50
2023-04-16T01:31:35.717Z,99907.88
2023-04-16T01:32:16.777Z,99905.03
2023-04-16T01:32:57.825Z,99894.53
2023-04-16T01:33:37.620Z,99896.38
2023-04-16T01:34:17.657Z,99900.75
2023-04-16T01:34:57.569Z,99906.28
2023-04-16T01:35:37.733Z,99902.47
2023-04-16T01:36:18.574Z,99906.88
2023-04-16T01:36:58.652Z,99903.47
2023-04-16T01:37:38.576Z,99898.22
2023-04-16T01:38:18.772Z,99900.94
2023-04-16T01:38:58.571Z,99911.28
2023-04-16T01:39:38.672Z,99907.03
2023-04-16T01:40:19.615Z,99899.34
2023-04-16T01:41:03.727Z,99910.44
2023-04-16T01:41:44.584Z,99910.59
2023-04-16T01:42:24.633Z,99899.63
2023-04-16T01:43:04.574Z,99880.25
2023-04-16T01:43:44.703Z,99882.97
2023-04-16T01:44:25.623Z,99903.47
2023-04-16T01:45:05.667Z,99893.22
2023-04-16T01:45:45.575Z,99892.78
2023-04-16T01:46:32.677Z,99891.50
2023-04-16T01:47:12.579Z,99902.47
2023-04-16T01:47:52.790Z,99904.75
2023-04-16T01:48:33.575Z,99892.66
2023-04-16T01:49:13.746Z,99888.69
2023-04-16T01:49:54.565Z,99897.91
2023-04-16T01:50:48.589Z,99897.91
2023-04-16T01:51:42.559Z,99881.69
2023-04-16T01:52:29.611Z,99875.34
2023-04-16T01:53:05.074Z,99882.00
2023-04-16T01:53:52.588Z,99894.09
2023-04-16T01:54:26.817Z,99887.69
2023-04-16T01:55:14.582Z,99894.53
2023-04-16T01:55:48.659Z,99883.28
2023-04-16T01:56:35.550Z,99887.41
2023-04-16T01:57:09.657Z,99889.97
2023-04-16T01:57:49.612Z,99877.19
2023-04-16T01:58:30.734Z,99897.34
2023-04-16T01:59:11.745Z,99904.16
2023-04-16T01:59:51.635Z,99889.22
2023-04-16T02:00:32.587Z,99890.53
2023-04-16T02:01:12.696Z,99907.88
2023-04-16T02:01:52.643Z,99902.03
2023-04-16T02:02:32.827Z,99907.56
2023-04-16T02:03:12.681Z,99902.59
2023-04-16T02:03:53.846Z,99899.03
2023-04-16T02:04:34.568Z,99899.34
2023-04-16T02:05:14.673Z,99899.03
2023-04-16T02:05:55.574Z,99907.88
2023-04-16T02:06:35.769Z,99889.53
2023-04-16T02:07:16.562Z,99900.75
2023-04-16T02:07:56.652Z,99896.47
2023-04-16T02:08:37.548Z,99908.88
2023-04-16T02:09:17.751Z,99908.16
2023-04-16T02:09:58.570Z,99910.00
2023-04-16T02:10:38.675Z,99905.34
2023-04-16T02:11:18.576Z,99889.97
2023-04-16T02:11:58.810Z,99909.91
2023-04-16T02:12:39.550Z,99894.25
2023-04-16T02:13:22.009Z,99909.16
2023-04-16T02:14:01.612Z,99908.72
2023-04-16T02:14:41.670Z,99912.88
2023-04-16T02:15:22.529Z,99916.16
2023-04-16T02:16:02.739Z,99910.16
2023-04-16T02:16:43.587Z,99914.16
2023-04-16T02:17:23.854Z,99920.72
2023-04-16T02:18:03.578Z,99927.50
2023-04-16T02:18:43.622Z,99913.03
2023-04-16T02:19:24.601Z,99916.47
2023-04-16T02:20:07.893Z,99911.19
2023-04-16T02:20:52.542Z,99930.09
2023-04-16T02:21:32.742Z,99919.56
2023-04-16T02:22:13.522Z,99919.16
2023-04-16T02:22:54.033Z,99909.03
2023-04-16T02:23:33.530Z,99924.97
2023-04-16T02:24:13.642Z,99924.41
2023-04-16T02:24:54.540Z,99913.59
2023-04-16T02:25:34.673Z,99908.47
2023-04-16T02:26:14.531Z,99914.44
2023-04-16T02:26:54.681Z,99926.22
2023-04-16T02:27:34.546Z,99915.00
2023-04-16T02:28:16.619Z,99918.97
2023-04-16T02:28:57.497Z,99930.22
2023-04-16T02:29:37.823Z,99914.56
2023-04-16T02:30:18.552Z,99925.69
2023-04-16T02:30:59.690Z,99931.06
2023-04-16T02:31:39.516Z,99921.25
2023-04-16T02:32:19.748Z,99927.50
2023-04-16T02:33:00.554Z,99918.53
2023-04-16T02:33:40.598Z,99934.06
2023-04-16T02:34:21.520Z,99930.06
2023-04-16T02:35:03.954Z,99930.63
2023-04-16T02:35:45.535Z,99934.63
2023-04-16T02:36:25.641Z,99899.63
2023-04-16T02:37:06.573Z,99927.34
2023-04-16T02:37:46.624Z,99921.53
2023-04-16T02:38:26.506Z,99915.41
2023-04-16T02:39:06.809Z,99929.63
2023-04-16T02:39:47.527Z,99922.09
2023-04-16T02:40:27.701Z,99928.94
2023-04-16T02:41:08.525Z,99932.75
2023-04-16T02:41:48.604Z,99930.03
2023-04-16T02:42:28.523Z,99924.34
2023-04-16T02:43:08.601Z,99940.97
2023-04-16T02:43:48.524Z,99941.97
2023-04-16T02:44:28.614Z,99936.03
2023-04-16T02:45:09.504Z,99939.44
2023-04-16T02:45:49.681Z,99942.69
2023-04-16T02:46:29.577Z,99928.34
2023-04-16T02:47:09.626Z,99934.31
2023-04-16T02:47:49.531Z,99917.00
2023-04-16T02:48:29.648Z,99929.47
2023-04-16T02:49:10.678Z,99929.19
2023-04-16T02:49:50.725Z,99936.88
2023-04-16T02:50:30.506Z,99916.94
2023-04-16T02:51:24.532Z,99936.56
2023-04-16T02:52:04.548Z,99941.72
2023-04-16T02:52:44.667Z,99939.84
2023-04-16T02:53:25.489Z,99921.19
2023-04-16T02:54:05.597Z,99930.00
2023-04-16T02:54:45.488Z,99923.63
2023-04-16T02:55:25.802Z,99930.31
2023-04-16T02:56:05.549Z,99934.72
2023-04-16T02:56:45.617Z,99938.28
2023-04-16T02:57:26.559Z,99931.44
2023-04-16T02:58:06.648Z,99937.28
2023-04-16T02:58:47.503Z,99932.31
2023-04-16T02:59:27.604Z,99928.31
2023-04-16T03:00:08.483Z,99937.28
2023-04-16T03:00:48.613Z,99942.69
2023-04-16T03:01:29.520Z,99927.91
2023-04-16T03:02:09.602Z,99926.06
2023-04-16T03:02:49.605Z,99910.28
2023-04-16T03:03:29.601Z,99940.28
2023-04-16T03:04:10.551Z,99940.72
2023-04-16T03:04:50.739Z,99919.63
2023-04-16T03:05:31.479Z,99929.47
2023-04-16T03:06:11.717Z,99932.16
2023-04-16T03:06:52.477Z,99926.00
2023-04-16T03:07:32.597Z,99933.25
2023-04-16T03:08:13.486Z,99915.34
2023-04-16T03:08:53.601Z,99925.72
2023-04-16T03:09:34.500Z,99917.47
2023-04-16T03:10:15.623Z,99931.16
2023-04-16T03:10:55.484Z,99937.94
2023-04-16T03:11:35.740Z,99925.16
2023-04-16T03:12:15.483Z,99918.63
2023-04-16T03:12:55.633Z,99935.56
2023-04-16T03:13:36.512Z,99942.50
2023-04-16T03:14:16.583Z,99941.66
2023-04-16T03:14:59.515Z,99955.03
2023-04-16T03:15:39.674Z,99934.25
2023-04-16T03:16:19.617Z,99931.41
2023-04-16T03:16:59.557Z,99947.06
2023-04-16T03:17:40.508Z,99943.66
2023-04-16T03:18:20.596Z,99947.50
2023-04-16T03:19:00.511Z,99957.06
2023-04-16T03:19:40.568Z,99953.38
2023-04-16T03:20:23.479Z,99961.75
2023-04-16T03:21:03.580Z,99951.66
2023-04-16T03:21:43.482Z,99963.63
2023-04-16T03:22:24.610Z,99966.91
2023-04-16T03:23:04.481Z,99957.97
2023-04-16T03:23:44.586Z,99964.75
2023-04-16T03:24:24.542Z,99952.66
2023-04-16T03:25:04.597Z,99955.38
2023-04-16T03:25:47.474Z,99961.19
2023-04-16T03:26:27.545Z,99956.50
2023-04-16T03:27:08.479Z,99963.63
2023-04-16T03:27:48.550Z,99963.47
2023-04-16T03:28:28.463Z,99973.28
2023-04-16T03:29:08.810Z,99962.19
2023-04-16T03:29:49.508Z,99968.03
2023-04-16T03:30:29.607Z,99946.84
2023-04-16T03:31:10.525Z,99969.63
2023-04-16T03:31:50.593Z,99965.47
2023-04-16T03:32:30.513Z,99957.94
2023-04-16T03:33:10.691Z,99958.09
2023-04-16T03:33:51.462Z,99951.41
2023-04-16T03:34:45.495Z,99952.56
2023-04-16T03:35:25.506Z,99952.25
2023-04-16T03:36:05.557Z,99958.38
2023-04-16T03:36:45.457Z,99963.06
2023-04-16T03:37:25.719Z,99965.78
2023-04-16T03:38:06.447Z,99963.38
2023-04-16T03:38:46.540Z,99969.06
2023-04-16T03:39:27.469Z,99964.34
2023-04-16T03:40:07.523Z,99968.34
2023-04-16T03:40:47.478Z,99974.59
2023-04-16T03:41:27.550Z,99976.72
2023-04-16T03:42:08.473Z,99969.75
2023-04-16T03:42:48.540Z,99959.91
2023-04-16T03:43:28.458Z,99976.72
2023-04-16T03:44:08.563Z,99970.19
2023-04-16T03:44:49.455Z,99958.84
2023-04-16T03:45:29.555Z,99983.56
2023-04-16T03:46:10.462Z,99974.44
2023-04-16T03:46:50.715Z,99973.44
2023-04-16T03:47:30.478Z,99958.66
2023-04-16T03:48:10.695Z,99983.28
2023-04-16T03:48:50.466Z,99961.50
2023-04-16T03:49:30.594Z,99988.16
2023-04-16T03:50:12.484Z,99977.59
2023-04-16T03:50:53.525Z,99984.03
2023-04-16T03:51:34.470Z,99976.16
2023-04-16T03:52:14.546Z,99992.97
2023-04-16T03:52:55.437Z,99977.88
2023-04-16T03:53:35.611Z,99981.72
2023-04-16T03:54:16.468Z,99971.34
2023-04-16T03:54:56.560Z,99981.56
2023-04-16T03:55:37.452Z,99982.44
2023-04-16T03:56:17.544Z,99982.31
2023-04-16T03:56:58.466Z,99987.84
2023-04-16T03:57:38.602Z,99988.16
2023-04-16T03:58:19.450Z,99992.25
2023-04-16T03:58:59.526Z,99989.53
2023-04-16T03:59:39.435Z,99990.97
2023-04-16T04:00:19.564Z,99990.69
2023-04-16T04:01:01.536Z,99984.97
2023-04-16T04:01:41.614Z,99991.53
2023-04-16T04:02:22.559Z,100002.91
2023-04-16T04:03:03.699Z,100002.91
2023-04-16T04:03:44.556Z,100004.63
2023-04-16T04:04:24.603Z,99996.94
2023-04-16T04:05:04.522Z,100002.22
2023-04-16T04:05:48.586Z,100003.75
2023-04-16T04:06:29.435Z,100013.31
2023-04-16T04:07:09.547Z,100008.91
2023-04-16T04:07:49.477Z,100010.63
2023-04-16T04:08:29.573Z,100002.22
2023-04-16T04:09:11.640Z,100012.59
2023-04-16T04:09:51.523Z,100012.59
2023-04-16T04:10:32.427Z,100011.44
2023-04-16T04:11:12.504Z,100004.63
2023-04-16T04:11:52.442Z,100020.28
2023-04-16T04:12:32.504Z,100015.72
2023-04-16T04:13:13.525Z,100011.44
2023-04-16T04:13:53.526Z,100011.31
2023-04-16T04:14:34.857Z,100015.41
2023-04-16T04:15:16.576Z,100007.16
2023-04-16T04:15:57.483Z,100017.53
2023-04-16T04:16:38.638Z,100006.00
2023-04-16T04:17:18.433Z,100009.72
2023-04-16T04:17:58.523Z,100008.88
2023-04-16T04:18:39.421Z,100006.88
2023-04-16T04:19:19.495Z,100001.03
2023-04-16T04:20:01.740Z,100012.00
2023-04-16T04:20:46.526Z,100010.31
2023-04-16T04:21:27.422Z,99999.25
2023-04-16T04:22:07.500Z,100014.31
2023-04-16T04:22:48.413Z,100000.25
2023-04-16T04:23:28.536Z,100010.63
2023-04-16T04:24:08.432Z,100010.06
2023-04-16T04:24:48.517Z,100011.44
2023-04-16T04:25:29.416Z,100008.91
2023-04-16T04:26:10.527Z,100021.72
2023-04-16T04:26:51.416Z,100000.53
2023-04-16T04:27:31.507Z,100013.03
2023-04-16T04:28:11.432Z,100009.75
2023-04-16T04:28:51.506Z,99998.81
2023-04-16T04:29:31.491Z,100020.41
2023-04-16T04:30:12.494Z,100019.44
2023-04-16T04:30:53.419Z,100016.75
2023-04-16T04:31:33.525Z,100021.72
2023-04-16T04:32:13.409Z,100007.19
2023-04-16T04:32:53.541Z,100015.47
2023-04-16T04:33:34.437Z,100016.84
2023-04-16T04:34:14.489Z,100031.13
2023-04-16T04:34:55.435Z,100030.69
2023-04-16T04:35:35.540Z,100035.38
2023-04-16T04:36:15.405Z,100027.44
2023-04-16T04:36:55.622Z,100010.94
2023-04-16T04:37:36.427Z,100034.69
2023-04-16T04:38:19.846Z,100018.31
2023-04-16T04:39:00.410Z,100033.97
2023-04-16T04:39:40.516Z,100042.53
2023-04-16T04:40:20.424Z,100038.56
2023-04-16T04:41:00.826Z,100045.38
2023-04-16T04:41:40.408Z,100044.66
2023-04-16T04:42:22.538Z,100045.09
2023-04-16T04:43:03.390Z,100046.78
2023-04-16T04:43:43.500Z,100044.81
2023-04-16T04:44:23.414Z,100055.63
2023-04-16T04:45:03.487Z,100044.13
2023-04-16T04:45:44.458Z,100057.50
2023-04-16T04:46:24.564Z,100059.78
2023-04-16T04:47:05.419Z,100052.63
2023-04-16T04:47:45.575Z,100043.22
2023-04-16T04:48:25.423Z,100051.34
2023-04-16T04:49:05.505Z,100057.63
2023-04-16T04:49:46.395Z,100061.75
2023-04-16T04:50:27.468Z,100043.09
2023-04-16T04:51:08.458Z,100062.03
2023-04-16T04:51:48.783Z,100055.91
2023-04-16T04:52:28.384Z,100060.78
2023-04-16T04:53:11.607Z,100059.50
2023-04-16T04:53:51.393Z,100062.06
2023-04-16T04:54:31.532Z,100047.09
2023-04-16T04:55:12.390Z,100046.25
2023-04-16T04:55:55.621Z,100051.66
2023-04-16T04:56:38.402Z,100054.06
2023-04-16T04:57:18.476Z,100054.91
2023-04-16T04:57:58.387Z,100050.09
2023-04-16T04:58:38.509Z,100047.94
2023-04-16T04:59:19.379Z,100042.53
2023-04-16T04:59:59.557Z,100041.13
2023-04-16T05:00:40.392Z,100061.47
2023-04-16T05:01:20.856Z,100054.50
2023-04-16T05:02:02.448Z,100042.28
2023-04-16T05:02:42.564Z,100057.94
2023-04-16T05:03:27.403Z,100062.75
2023-04-16T05:04:07.591Z,100067.16
2023-04-16T05:04:47.424Z,100052.78
2023-04-16T05:05:27.702Z,100051.78
2023-04-16T05:06:07.466Z,100056.78
2023-04-16T05:06:47.467Z,100059.63
2023-04-16T05:07:28.424Z,100078.31
2023-04-16T05:08:08.512Z,100074.88
2023-04-16T05:08:48.387Z,100062.22
2023-04-16T05:09:28.466Z,100065.88
2023-04-16T05:10:08.383Z,100064.47
2023-04-16T05:10:48.545Z,100072.56
2023-04-16T05:11:29.433Z,100074.31
2023-04-16T05:12:10.675Z,100073.84
2023-04-16T05:12:50.417Z,100078.31
2023-04-16T05:13:30.749Z,100065.88
2023-04-16T05:14:11.405Z,100075.28
2023-04-16T05:14:51.465Z,100084.41
2023-04-16T05:15:32.372Z,100075.00
2023-04-16T05:16:13.520Z,100057.63
2023-04-16T05:16:53.413Z,100075.28
2023-04-16T05:17:33.476Z,100091.66
2023-04-16T05:18:13.393Z,100073.31
2023-04-16T05:18:53.572Z,100085.56
2023-04-16T05:19:34.382Z,100064.88
2023-04-16T05:20:16.501Z,100074.44
2023-04-16T05:20:57.425Z,100080.69
2023-04-16T05:21:37.465Z,100083.25
2023-04-16T05:22:17.351Z,100084.41
2023-04-16T05:22:58.498Z,100085.81
2023-04-16T05:23:39.376Z,100087.81
2023-04-16T05:24:19.451Z,100091.06
2023-04-16T05:24:59.352Z,100101.19
2023-04-16T05:25:39.495Z,100090.94
2023-04-16T05:26:19.630Z,100090.94
2023-04-16T05:26:59.465Z,100102.03
2023-04-16T05:27:40.369Z,100091.34
2023-04-16T05:28:20.466Z,100104.88
2023-04-16T05:29:00.367Z,100095.34
2023-04-16T05:29:40.722Z,100102.88
2023-04-16T05:30:20.356Z,100091.22
2023-04-16T05:31:00.855Z,100085.66
2023-04-16T05:31:42.370Z,100096.91
2023-04-16T05:32:23.572Z,100099.63
2023-04-16T05:33:03.378Z,100090.94
2023-04-16T05:33:43.509Z,100095.19
2023-04-16T05:34:23.430Z,100096.06
2023-04-16T05:35:03.527Z,100092.69
2023-04-16T05:35:44.352Z,100101.50
2023-04-16T05:36:24.482Z,100093.50
2023-04-16T05:37:04.384Z,100093.94
2023-04-16T05:37:44.409Z,100096.50
2023-04-16T05:38:24.374Z,100109.59
2023-04-16T05:39:04.427Z,100105.88
2023-04-16T05:39:45.421Z,100108.59
2023-04-16T05:40:26.182Z,100110.44
2023-04-16T05:41:06.347Z,100098.03
2023-04-16T05:41:46.455Z,100103.88
2023-04-16T05:42:26.333Z,100100.03
2023-04-16T05:43:06.491Z,100106.72
2023-04-16T05:43:47.336Z,100090.22
2023-04-16T05:44:27.425Z,100101.59
2023-04-16T05:45:11.399Z,100096.94
2023-04-16T05:45:51.515Z,100100.59
2023-04-16T05:46:32.428Z,100099.66
2023-04-16T05:47:12.459Z,100093.94
2023-04-16T05:47:53.350Z,100096.50
2023-04-16T05:48:33.487Z,100110.63
2023-04-16T05:49:13.337Z,100110.03
2023-04-16T05:49:53.427Z,100102.94
2023-04-16T05:50:33.383Z,100099.09
2023-04-16T05:51:13.444Z,100108.06
2023-04-16T05:51:54.397Z,100102.94
2023-04-16T05:52:34.418Z,100095.81
2023-04-16T05:53:15.340Z,100095.38
2023-04-16T05:53:55.565Z,100099.22
2023-04-16T05:54:35.353Z,100090.41
2023-04-16T05:55:16.467Z,100107.63
2023-04-16T05:55:57.367Z,100105.22
2023-04-16T05:56:37.407Z,100096.34
2023-04-16T05:57:18.327Z,100105.22
2023-04-16T05:57:58.606Z,100108.06
2023-04-16T05:58:38.331Z,100108.91
2023-04-16T05:59:18.472Z,100082.38
2023-04-16T05:59:59.345Z,100105.91
2023-04-16T06:00:40.862Z,100111.16
2023-04-16T06:01:21.349Z,100109.63
2023-04-16T06:02:01.550Z,100104.63
2023-04-16T06:02:43.475Z,100093.38
2023-04-16T06:03:23.455Z,100112.59
2023-04-16T06:04:04.561Z,100121.69
2023-04-16T06:04:44.469Z,100103.91
2023-04-16T06:05:25.425Z,100125.72
2023-04-16T06:06:05.675Z,100101.47
2023-04-16T06:06:46.374Z,100118.72
2023-04-16T06:07:26.408Z,100097.06
2023-04-16T06:08:07.310Z,100108.56
2023-04-16T06:08:47.474Z,100115.69
2023-04-16T06:09:27.318Z,100111.69
2023-04-16T06:10:07.404Z,100102.31
2023-04-16T06:10:48.326Z,100111.13
2023-04-16T06:11:28.392Z,100103.72
2023-04-16T06:12:09.345Z,100102.88
2023-04-16T06:12:49.485Z,100112.53
2023-04-16T06:13:29.318Z,100123.06
2023-04-16T06:14:09.501Z,100107.13
2023-04-16T06:14:49.325Z,100100.00
2023-04-16T06:15:29.418Z,100092.31
2023-04-16T06:16:10.360Z,100126.06
2023-04-16T06:16:51.001Z,100120.50
2023-04-16T06:17:31.388Z,100124.91
2023-04-16T06:18:11.433Z,100126.78
2023-04-16T06:18:51.358Z,100122.22
2023-04-16T06:19:31.400Z,100131.91
2023-04-16T06:20:13.355Z,100125.94
2023-04-16T06:20:54.586Z,100126.25
2023-04-16T06:21:35.309Z,100134.22
2023-04-16T06:22:15.394Z,100119.97
2023-04-16T06:22:55.325Z,100113.38
2023-04-16T06:23:35.423Z,100131.88
2023-04-16T06:24:16.309Z,100103.16
2023-04-16T06:24:56.397Z,100118.38
2023-04-16T06:25:37.308Z,100135.16
2023-04-16T06:26:18.419Z,100121.31
2023-04-16T06:26:58.330Z,100117.28
2023-04-16T06:27:38.384Z,100129.41
2023-04-16T06:28:19.339Z,100126.59
2023-04-16T06:28:59.378Z,100118.56
2023-04-16T06:29:41.508Z,100125.16
2023-04-16T06:30:23.415Z,100115.59
2023-04-16T06:31:03.366Z,100114.47
2023-04-16T06:31:43.428Z,100130.56
2023-04-16T06:32:24.343Z,100127.84
2023-04-16T06:33:04.504Z,100118.47
2023-04-16T06:33:44.348Z,100127.84
2023-04-16T06:34:24.407Z,100127.84
2023-04-16T06:35:05.280Z,100143.09
2023-04-16T06:35:45.425Z,100125.97
2023-04-16T06:36:26.291Z,100130.78
2023-04-16T06:37:09.114Z,100135.91
2023-04-16T06:37:50.319Z,100144.59
2023-04-16T06:38:30.439Z,100139.72
2023-04-16T06:39:11.543Z,100125.47
2023-04-16T06:39:52.441Z,100127.47
2023-04-16T06:40:33.303Z,100143.69
2023-04-16T06:41:13.386Z,100145.97
2023-04-16T06:41:56.285Z,100129.28
2023-04-16T06:42:36.605Z,100119.16
2023-04-16T06:43:16.276Z,100140.06
2023-04-16T06:43:56.422Z,100141.63
2023-04-16T06:44:37.338Z,100142.47
2023-04-16T06:45:18.460Z,100123.81
2023-04-16T06:45:58.287Z,100119.59
2023-04-16T06:46:38.422Z,100128.22
2023-04-16T06:47:18.327Z,100140.72
2023-04-16T06:47:59.128Z,100139.56
2023-04-16T06:48:40.283Z,100140.72
2023-04-16T06:49:20.362Z,100131.34
2023-04-16T06:50:00.305Z,100141.16
2023-04-16T06:50:40.425Z,100132.34
2023-04-16T06:51:20.292Z,100146.69
2023-04-16T06:52:00.475Z,100127.59
2023-04-16T06:52:41.286Z,100137.56
2023-04-16T06:53:22.374Z,100143.00
2023-04-16T06:54:02.292Z,100139.25
2023-04-16T06:54:43.383Z,100144.69
2023-04-16T06:55:24.306Z,100150.13
2023-04-16T06:56:04.386Z,100132.75
2023-04-16T06:56:45.275Z,100146.06
2023-04-16T06:57:25.399Z,100131.25
2023-04-16T06:58:05.284Z,100134.13
2023-04-16T06:58:45.358Z,100141.13
2023-04-16T06:59:25.269Z,100130.31
2023-04-16T07:00:05.420Z,100134.44
2023-04-16T07:00:46.333Z,100125.91
2023-04-16T07:01:26.400Z,100142.66
2023-04-16T07:02:06.434Z,100124.22
2023-04-16T07:02:46.536Z,100143.00
2023-04-16T07:03:27.379Z,100145.53
2023-04-16T07:04:07.469Z,100126.59
2023-04-16T07:04:48.295Z,100139.38
2023-04-16T07:05:28.439Z,100127.69
2023-04-16T07:06:09.281Z,100132.44
2023-04-16T07:06:49.339Z,100130.72
2023-04-16T07:07:29.274Z,100148.34
2023-04-16T07:08:09.342Z,100152.09
2023-04-16T07:08:50.238Z,100137.28
2023-04-16T07:09:30.596Z,100145.91
2023-04-16T07:10:12.286Z,100145.59
2023-04-16T07:10:53.783Z,100131.00
2023-04-16T07:11:34.317Z,100150.19
2023-04-16T07:12:14.391Z,100148.19
2023-04-16T07:12:55.275Z,100143.16
2023-04-16T07:13:35.421Z,100153.66
2023-04-16T07:14:16.868Z,100140.22
2023-04-16T07:14:57.338Z,100155.34
2023-04-16T07:15:38.239Z,100150.78
2023-04-16T07:16:18.385Z,100146.03
2023-04-16T07:16:59.271Z,100154.72
2023-04-16T07:17:39.395Z,100155.66
2023-04-16T07:18:20.866Z,100148.84
2023-04-16T07:19:01.334Z,100153.78
2023-04-16T07:19:42.271Z,100143.56
2023-04-16T07:20:22.450Z,100148.47
2023-04-16T07:21:03.255Z,100161.47
2023-04-16T07:21:57.292Z,100164.91
2023-04-16T07:22:38.260Z,100158.13
2023-04-16T07:23:18.356Z,100151.47
2023-04-16T07:23:58.259Z,100145.28
2023-04-16T07:24:38.337Z,100150.16
2023-04-16T07:25:19.260Z,100146.97
2023-04-16T07:25:59.368Z,100154.50
2023-04-16T07:26:39.251Z,100151.69
2023-04-16T07:27:19.284Z,100139.44
2023-04-16T07:27:53.337Z,100151.69
2023-04-16T07:28:40.232Z,100131.59
2023-04-16T07:29:14.354Z,100163.31
2023-04-16T07:30:02.259Z,100159.59
2023-04-16T07:30:36.411Z,100154.91
2023-04-16T07:31:23.365Z,100149.97
2023-04-16T07:31:57.364Z,100164.34
2023-04-16T07:32:44.322Z,100143.25
2023-04-16T07:33:18.338Z,100161.56
2023-04-16T07:34:05.220Z,100148.06
2023-04-16T07:34:39.467Z,100157.44
2023-04-16T07:35:26.263Z,100151.84
2023-04-16T07:36:00.472Z,100151.69
2023-04-16T07:36:48.255Z,100170.72
2023-04-16T07:37:22.683Z,100156.44
2023-04-16T07:38:09.268Z,100165.13
2023-04-16T07:38:43.398Z,100165.69
2023-04-16T07:39:30.259Z,100162.66
2023-04-16T07:40:04.478Z,100170.34
2023-04-16T07:40:51.234Z,100161.81
2023-04-16T07:41:25.326Z,100141.69
2023-04-16T07:42:13.266Z,100174.22
2023-04-16T07:42:47.340Z,100159.91
2023-04-16T07:43:34.351Z,100174.91
2023-04-16T07:44:08.323Z,100172.41
2023-04-16T07:44:55.255Z,100166.75
2023-04-16T07:45:30.329Z,100169.22
2023-04-16T07:46:17.267Z,100173.47
2023-04-16T07:46:51.330Z,100169.22
2023-04-16T07:47:38.246Z,100172.94
2023-04-16T07:48:12.365Z,100180.38
2023-04-16T07:48:59.279Z,100178.00
2023-04-16T07:49:33.421Z,100180.72
2023-04-16T07:50:22.224Z,100172.22
2023-04-16T07:50:56.361Z,100163.34
2023-04-16T07:51:43.267Z,100178.06
2023-04-16T07:52:17.364Z,100186.59